createdAt,value
2023-03-23T00:01:31.739Z,43.4
2023-03-23T00:06:32.314Z,43.4
2023-03-23T00:11:33.048Z,43.4
2023-03-23T00:16:33.777Z,43.3
2023-03-23T00:21:34.373Z,43.3
2023-03-23T00:26:35.224Z,43.3
2023-03-23T00:31:48.831Z,43.2
2023-03-23T00:36:49.396Z,43.1
2023-03-23T00:41:49.910Z,43.1
2023-03-23T00:46:50.494Z,43.1
2023-03-23T00:51:51.126Z,43
2023-03-23T00:56:51.707Z,43
2023-03-23T01:01:52.512Z,42.9
2023-03-23T01:06:53.051Z,42.9
2023-03-23T01:11:53.573Z,42.8
2023-03-23T01:16:54.367Z,42.8
2023-03-23T01:21:54.901Z,42.7
2023-03-23T01:26:55.438Z,42.7
2023-03-23T01:31:55.944Z,42.6
2023-03-23T01:36:56.717Z,42.6
2023-03-23T01:41:57.528Z,42.6
2023-03-23T01:46:58.042Z,42.5
2023-03-23T01:51:58.622Z,42.5
2023-03-23T01:56:59.279Z,42.4
2023-03-23T02:01:59.863Z,42.4
2023-03-23T02:07:00.580Z,42.3
2023-03-23T02:12:01.124Z,42.3
2023-03-23T02:17:01.655Z,42.2
2023-03-23T02:22:02.353Z,42.2
2023-03-23T02:27:03.055Z,42.2
2023-03-23T02:32:03.726Z,42.1
2023-03-23T02:37:04.255Z,42.1
2023-03-23T02:42:13.375Z,42.1
2023-03-23T02:47:16.006Z,42
2023-03-23T02:52:16.511Z,41.9
2023-03-23T02:57:17.355Z,41.9
2023-03-23T03:02:18.171Z,41.9
2023-03-23T03:07:18.866Z,41.8
2023-03-23T03:12:20.589Z,41.8
2023-03-23T03:17:21.072Z,41.7
2023-03-23T03:22:21.794Z,41.7
2023-03-23T03:27:22.290Z,41.7
2023-03-23T03:32:22.720Z,41.6
2023-03-23T03:37:23.601Z,41.6
2023-03-23T03:42:24.078Z,41.5
2023-03-23T03:52:30.028Z,41.4
2023-03-23T03:57:30.784Z,41.4
2023-03-23T04:02:31.205Z,41.4
2023-03-23T04:07:31.843Z,41.3
2023-03-23T04:12:32.296Z,41.2
2023-03-23T04:17:32.764Z,41.2
2023-03-23T04:22:33.577Z,41.2
2023-03-23T04:27:34.035Z,41.2
2023-03-23T04:32:35.276Z,41.1
2023-03-23T04:37:35.719Z,41.1
2023-03-23T04:42:36.214Z,41.1
2023-03-23T04:47:36.827Z,41
2023-03-23T04:52:37.246Z,40.9
2023-03-23T04:57:39.935Z,40.9
2023-03-23T05:02:40.424Z,40.9
2023-03-23T05:07:40.892Z,40.8
2023-03-23T05:12:41.372Z,40.8
2023-03-23T05:17:41.885Z,40.8
2023-03-23T05:22:43.225Z,40.8
2023-03-23T05:27:43.653Z,40.7
2023-03-23T05:32:44.157Z,40.6
2023-03-23T05:37:44.826Z,40.6
2023-03-23T05:42:45.308Z,40.6
2023-03-23T05:47:45.802Z,40.5
2023-03-23T05:52:46.434Z,40.5
2023-03-23T05:57:47.122Z,40.4
2023-03-23T06:02:47.582Z,40.4
2023-03-23T06:07:48.074Z,40.4
2023-03-23T06:12:48.550Z,40.3
2023-03-23T06:17:49.017Z,40.3
2023-03-23T06:22:49.472Z,40.2
2023-03-23T06:27:52.758Z,40.2
2023-03-23T06:32:53.247Z,40.2
2023-03-23T06:37:53.705Z,40.1
2023-03-23T06:42:54.193Z,40.1
2023-03-23T06:47:54.631Z,40.1
2023-03-23T06:52:55.145Z,40.1
2023-03-23T06:57:59.702Z,40
2023-03-23T07:03:00.150Z,39.9
2023-03-23T07:08:01.426Z,39.9
2023-03-23T07:13:01.851Z,39.9
2023-03-23T07:18:02.402Z,39.9
2023-03-23T07:23:03.015Z,39.8
2023-03-23T07:28:03.647Z,39.7
2023-03-23T07:33:06.817Z,39.7
2023-03-23T07:38:07.581Z,39.7
2023-03-23T07:43:10.899Z,39.6
2023-03-23T07:48:19.593Z,39.6
2023-03-23T07:53:21.626Z,39.6
2023-03-23T07:58:22.217Z,39.5
2023-03-23T08:03:22.663Z,39.4
2023-03-23T08:08:24.931Z,39.4
2023-03-23T08:13:25.358Z,39.4
2023-03-23T08:18:25.846Z,39.4
2023-03-23T08:23:26.434Z,39.3
2023-03-23T08:28:27.974Z,39.3
2023-03-23T08:33:28.421Z,39.2
2023-03-23T08:38:31.928Z,39.2
2023-03-23T08:43:32.358Z,39.2
2023-03-23T08:48:32.895Z,39.2
2023-03-23T08:53:33.471Z,39.1
2023-03-23T08:58:33.908Z,39.1
2023-03-23T09:03:34.342Z,39.1
2023-03-23T09:08:35.255Z,39
2023-03-23T09:13:35.769Z,39
2023-03-23T09:18:36.207Z,38.9
2023-03-23T09:23:36.650Z,38.9
2023-03-23T09:28:37.146Z,38.9
2023-03-23T09:33:38.702Z,38.9
2023-03-23T09:38:47.661Z,38.8
2023-03-23T09:43:48.297Z,38.8
2023-03-23T09:48:48.743Z,38.7
2023-03-23T09:53:49.689Z,38.7
2023-03-23T09:58:50.106Z,38.6
2023-03-23T10:03:50.569Z,38.6
2023-03-23T10:08:56.960Z,38.5
2023-03-23T10:13:57.815Z,38.5
2023-03-23T10:18:58.311Z,38.4
2023-03-23T10:23:58.727Z,38.4
2023-03-23T10:28:59.551Z,38.3
2023-03-23T10:33:59.966Z,38.3
2023-03-23T10:39:00.413Z,38.2
2023-03-23T10:44:00.893Z,38.2
2023-03-23T10:49:01.462Z,38.2
2023-03-23T10:54:01.969Z,38.2
2023-03-23T10:59:02.461Z,38.1
2023-03-23T11:04:02.917Z,38.1
2023-03-23T11:09:03.296Z,38.1
2023-03-23T11:14:03.713Z,38.1
2023-03-23T11:19:04.129Z,38
2023-03-23T11:24:09.831Z,38
2023-03-23T11:29:10.779Z,37.9
2023-03-23T11:34:11.206Z,37.9
2023-03-23T11:39:11.616Z,37.9
2023-03-23T11:44:12.141Z,37.9
2023-03-23T11:49:19.360Z,37.9
2023-03-23T11:54:25.466Z,37.8
2023-03-23T11:59:25.858Z,37.8
2023-03-23T12:04:26.265Z,37.7
2023-03-23T12:09:26.721Z,37.7
2023-03-23T12:14:30.125Z,37.7
2023-03-23T12:19:33.623Z,37.7
2023-03-23T12:24:34.308Z,37.6
2023-03-23T12:29:35.626Z,37.6
2023-03-23T12:34:36.026Z,37.6
2023-03-23T12:39:36.366Z,37.6
2023-03-23T12:44:36.743Z,37.6
2023-03-23T12:49:37.156Z,37.5
2023-03-23T12:54:38.407Z,37.5
2023-03-23T12:59:38.941Z,37.4
2023-03-23T13:04:39.304Z,37.4
2023-03-23T13:09:39.647Z,37.4
2023-03-23T13:14:41.085Z,37.4
2023-03-23T13:19:41.623Z,37.3
2023-03-23T13:24:41.991Z,37.3
2023-03-23T13:29:42.375Z,37.2
2023-03-23T13:34:42.703Z,37.2
2023-03-23T13:39:43.099Z,37.2
2023-03-23T13:44:43.480Z,37.2
2023-03-23T13:49:43.810Z,37.2
2023-03-23T13:54:44.149Z,37.2
2023-03-23T13:59:44.578Z,37.1
2023-03-23T14:04:44.928Z,37.1
2023-03-23T14:09:45.238Z,37.1
2023-03-23T14:14:45.599Z,37.1
2023-03-23T14:19:46.185Z,37
2023-03-23T14:24:46.523Z,37
2023-03-23T14:29:46.884Z,36.9
2023-03-23T14:34:47.257Z,36.9
2023-03-23T14:39:47.656Z,36.9
2023-03-23T14:44:48.040Z,36.9
2023-03-23T14:49:48.389Z,36.9
2023-03-23T14:54:49.148Z,36.8
2023-03-23T14:59:49.561Z,36.8
2023-03-23T15:04:51.105Z,36.8
2023-03-23T15:09:51.487Z,36.7
2023-03-23T15:14:51.872Z,36.7
2023-03-23T15:19:52.211Z,36.7
2023-03-23T15:24:52.542Z,36.7
2023-03-23T15:29:53.204Z,36.6
2023-03-23T15:34:53.590Z,36.6
2023-03-23T15:39:53.974Z,36.6
2023-03-23T15:44:57.389Z,36.6
2023-03-23T15:49:57.791Z,36.6
2023-03-23T15:54:58.210Z,36.5
2023-03-23T15:59:58.572Z,36.5
2023-03-23T16:04:58.975Z,36.5
2023-03-23T16:09:59.377Z,36.4
2023-03-23T16:14:59.740Z,36.4
2023-03-23T16:20:00.151Z,36.4
2023-03-23T16:25:00.534Z,36.4
2023-03-23T16:30:04.136Z,36.2
2023-03-23T16:35:04.760Z,36.2
2023-03-23T16:40:05.249Z,36.2
2023-03-23T16:45:05.601Z,36.1
2023-03-23T16:50:06.124Z,36.1
2023-03-23T16:55:06.489Z,36.1
2023-03-23T17:00:06.837Z,36.1
2023-03-23T17:05:07.232Z,36.1
2023-03-23T17:10:07.761Z,36.1
2023-03-23T17:15:08.160Z,36
2023-03-23T17:20:08.519Z,36
2023-03-23T17:25:08.904Z,38.2
2023-03-23T17:30:09.368Z,40.8
2023-03-23T17:35:09.846Z,42
2023-03-23T17:40:10.423Z,42.2
2023-03-23T17:45:11.006Z,42.2
2023-03-23T17:50:12.721Z,42.5
2023-03-23T17:55:14.387Z,43.4
2023-03-23T18:00:14.963Z,43.5
2023-03-23T18:05:15.538Z,43.5
2023-03-23T18:10:16.509Z,43.4
2023-03-23T18:15:17.252Z,43.4
2023-03-23T18:20:18.936Z,43.4
2023-03-23T18:25:19.914Z,43.4
2023-03-23T18:30:21.454Z,43.4
2023-03-23T18:35:22.026Z,43.3
2023-03-23T18:40:22.629Z,43.3
2023-03-23T18:45:23.394Z,43.3
2023-03-23T18:50:23.938Z,43.3
2023-03-23T18:55:29.828Z,43.3
2023-03-23T19:00:30.447Z,43.2
2023-03-23T19:05:31.012Z,42.7
2023-03-23T19:10:31.574Z,42.2
2023-03-23T19:15:32.166Z,42.2
2023-03-23T19:21:06.006Z,42.1
2023-03-23T19:26:10.217Z,42.1
2023-03-23T19:31:10.815Z,42
2023-03-23T19:36:13.355Z,41.9
2023-03-23T19:41:14.031Z,41.9
2023-03-23T19:46:14.667Z,41.9
2023-03-23T19:51:16.138Z,41.8
2023-03-23T19:56:17.118Z,41.7
2023-03-23T20:01:17.604Z,41.7
2023-03-23T20:06:19.427Z,41.7
2023-03-23T20:11:20.183Z,41.7
2023-03-23T20:16:21.864Z,41.6
2023-03-23T20:21:23.248Z,41.6
2023-03-23T20:26:25.569Z,41.5
2023-03-23T20:31:26.971Z,41.5
2023-03-23T20:36:27.507Z,41.4
2023-03-23T20:41:28.014Z,41.4
2023-03-23T20:46:28.493Z,41.2
2023-03-23T20:51:29.853Z,40.8
2023-03-23T20:56:31.439Z,39.4
2023-03-23T21:01:32.680Z,39.1
2023-03-23T21:06:33.482Z,38.9
2023-03-23T21:11:33.962Z,37.9
2023-03-23T21:16:35.401Z,37.6
2023-03-23T21:21:37.228Z,37.4
2023-03-23T21:26:37.606Z,37.4
2023-03-23T21:31:37.971Z,37.3
2023-03-23T21:36:38.781Z,37.2
2023-03-23T21:41:41.923Z,37.2
2023-03-23T21:46:43.189Z,37.1
2023-03-23T21:51:43.582Z,37.1
2023-03-23T21:56:43.980Z,37
2023-03-23T22:01:45.264Z,36.9
2023-03-23T22:06:45.793Z,36.9
2023-03-23T22:11:46.299Z,36.9
2023-03-23T22:16:46.852Z,36.8
2023-03-23T22:21:48.191Z,36.7
2023-03-23T22:26:48.648Z,36.7
2023-03-23T22:31:49.021Z,36.6
2023-03-23T22:36:49.426Z,36.6
2023-03-23T22:41:49.822Z,36.6
2023-03-23T22:46:50.235Z,36.5
2023-03-23T22:51:51.639Z,36.4
2023-03-23T22:56:52.036Z,36.4
2023-03-23T23:01:52.608Z,36.3
2023-03-23T23:07:00.360Z,36.3
2023-03-23T23:12:03.652Z,36.2
2023-03-23T23:17:04.034Z,36.2
2023-03-23T23:22:16.423Z,36.2
2023-03-23T23:27:18.774Z,36.1
2023-03-23T23:32:19.132Z,36.1
2023-03-23T23:37:19.542Z,36
2023-03-23T23:42:20.754Z,35.9
2023-03-23T23:47:21.263Z,35.9
2023-03-23T23:52:21.738Z,35.9
2023-03-23T23:57:22.081Z,35.8
